Accueil
METAR-TAF:

METAR-TAF

Aéroports :

Phrae, Thaïlande

latitude: 18-10N, longitude: 100-10E, altitude: 161 m

Observation

Le bulletin a été fait il y a 11 heures et 50 minutes, à 11:00 UTC
Vent calme
Température 28°C
Humidité 37%
Pression 1006 hPa
Visibilité: 4000 m
brume sèche

METAR: VTCP 251100Z 00000KT 4000 HZ NSC 28/12 Q1006 NOSIG

Heure: 05:50 (22:50 UTC)

Prévision

Le bulletin a été fait il y a 5 heures et 50 minutes, à 17:00 UTC
Prévision valable du 25 à 18 UTC au 26 à 18 UTC
Vent 2 kt de direction variable
Visibilité: 4000 m
brume sèche
Evoluant progressivement
du 25 à 22 UTC au 25 à 24 UTC
Visibilité: 1000 m
brume
Evoluant progressivement
du 26 à 04 UTC au 26 à 06 UTC
Visibilité: 5000 m
brume sèche

TAF: VTCP 251700Z 2518/2618 VRB02KT 4000 HZ NSC BECMG 2522/2524 1000 BR BECMG 2604/2606 5000 HZ

Observations et prévisions météorologiques de plus de 4000 aéroports (messages METAR et TAF).

Les stations disponibles sont représentées par des disques jaunes et rouges sur la carte.

Passer la souris dessus pour voir le nom de la station.

Cliquer dessus pour voir les observations et prévisions météorologiques.

Pour changer de carte: cliquez sur les boutons verts avec une croix noire pour zoomer, sur le bouton vert avec un tiret pour effectuer un zoom arrière, ou sur les flèches vertes pour les cartes adjacentes.


METAR-TAF: